Time;durP1;ratioP1;P1;durP2;ratioP2;P2;SDS_P1;SDS_P2;PMS_P1;PMS_P2;Temp;Humidity;BMP_temperature;BMP_pressure;BME280_temperature;BME280_humidity;BME280_pressure;Samples;Min_cycle;Max_cycle;Signal;HPM_P1;HPM_P2
2022/04/19 00:00:35;;;;;;;6.65;3.78;;;;;;;5.43;50.80;99583.81;5019220;28;20097;-69
2022/04/19 00:03:02;;;;;;;7.28;4.40;;;;;;;5.40;50.91;99593.69;5019797;28;20049;-71
2022/04/19 00:05:27;;;;;;;9.35;5.78;;;;;;;5.51;51.49;99586.06;5017968;28;20072;-67
2022/04/19 00:07:51;;;;;;;9.10;4.45;;;;;;;5.58;51.18;99595.38;5007840;28;20037;-66
2022/04/19 00:10:16;;;;;;;10.45;5.00;;;;;;;5.51;51.21;99595.78;5018301;28;20037;-72
2022/04/19 00:12:42;;;;;;;10.88;5.03;;;;;;;5.42;51.71;99592.66;4999034;28;20041;-67
2022/04/19 00:15:08;;;;;;;7.45;4.63;;;;;;;5.49;51.87;99593.22;4998757;28;20045;-69
2022/04/19 00:17:32;;;;;;;8.88;5.45;;;;;;;5.42;51.95;99599.75;4982836;28;20037;-68
2022/04/19 00:19:57;;;;;;;10.50;5.25;;;;;;;5.44;52.27;99590.81;4982398;28;20099;-68
2022/04/19 00:22:22;;;;;;;9.23;5.28;;;;;;;5.43;52.39;99598.81;4998399;28;20045;-65
2022/04/19 00:24:47;;;;;;;7.40;5.28;;;;;;;5.47;52.48;99595.94;5016421;28;20562;-67
2022/04/19 00:27:12;;;;;;;8.85;4.90;;;;;;;5.48;52.79;99580.94;4998355;28;20381;-67
2022/04/19 00:29:41;;;;;;;9.02;5.07;;;;;;;5.40;52.70;99588.41;4998548;28;20041;-71
2022/04/19 00:32:06;;;;;;;10.48;5.38;;;;;;;5.40;52.94;99583.97;5016386;28;20044;-71
2022/04/19 00:34:31;;;;;;;10.75;5.68;;;;;;;5.36;53.03;99574.50;4997881;28;20045;-69
2022/04/19 00:36:56;;;;;;;6.07;4.43;;;;;;;5.36;52.81;99576.28;5022864;28;20553;-70
2022/04/19 00:39:21;;;;;;;8.48;4.38;;;;;;;5.47;52.52;99574.78;5023852;28;20044;-69
2022/04/19 00:41:47;;;;;;;9.25;4.93;;;;;;;5.45;53.27;99571.38;4981524;28;20056;-68
2022/04/19 00:44:12;;;;;;;8.20;4.88;;;;;;;5.39;53.65;99576.13;4998358;28;20044;-71
2022/04/19 00:46:36;;;;;;;8.90;5.82;;;;;;;5.37;53.34;99584.13;4998610;28;20059;-71
2022/04/19 00:49:01;;;;;;;5.40;3.75;;;;;;;5.38;52.73;99574.41;4998996;28;20068;-64
2022/04/19 00:51:27;;;;;;;6.55;4.55;;;;;;;5.49;53.76;99572.06;5016357;28;20407;-68
2022/04/19 00:53:54;;;;;;;11.57;5.47;;;;;;;5.56;54.27;99580.53;4997881;28;20566;-65
2022/04/19 00:56:19;;;;;;;7.15;3.72;;;;;;;5.44;54.07;99569.66;4997922;28;20102;-68
2022/04/19 00:58:44;;;;;;;10.38;5.43;;;;;;;5.40;54.17;99576.06;5014170;28;20052;-65
2022/04/19 01:01:09;;;;;;;7.53;4.72;;;;;;;5.38;54.42;99556.75;5008716;28;20049;-67
2022/04/19 01:03:37;;;;;;;5.90;4.55;;;;;;;5.61;54.43;99562.66;4997506;28;20055;-69
2022/04/19 01:06:08;;;;;;;;;;;;;;;5.59;53.16;99560.06;4983873;28;20055;-67
2022/04/19 01:08:35;;;;;;;5.97;4.50;;;;;;;5.40;54.64;99567.25;5000137;28;19928;-69
2022/04/19 01:13:56;;;;;;;7.03;4.35;;;;;;;5.36;55.16;99557.78;4997707;28;20051;-69
2022/04/19 01:16:22;;;;;;;7.82;3.78;;;;;;;5.30;55.33;99553.66;4981401;28;20048;-64
2022/04/19 01:18:47;;;;;;;7.18;4.32;;;;;;;5.29;55.40;99559.88;5016342;28;20041;-68
2022/04/19 01:21:12;;;;;;;7.75;4.95;;;;;;;5.34;55.26;99552.56;4995560;28;20119;-66
2022/04/19 01:23:39;;;;;;;6.40;3.95;;;;;;;5.37;55.31;99557.69;4999097;28;20049;-69
2022/04/19 01:26:07;;;;;;;9.60;4.70;;;;;;;5.40;55.31;99560.19;5014115;28;20094;-73
2022/04/19 01:28:34;;;;;;;8.77;3.80;;;;;;;5.45;55.26;99552.84;4997898;28;20065;-73
2022/04/19 01:30:59;;;;;;;5.60;3.75;;;;;;;5.36;54.99;99542.75;4997224;28;20080;-71
2022/04/19 01:33:28;;;;;;;6.97;4.25;;;;;;;5.29;55.49;99549.31;4997241;28;20056;-70
2022/04/19 01:35:53;;;;;;;8.70;4.40;;;;;;;5.27;55.47;99550.31;4981128;28;20044;-68
2022/04/19 01:38:18;;;;;;;6.32;4.53;;;;;;;5.28;55.57;99557.31;4997407;28;20036;-68
2022/04/19 01:40:43;;;;;;;6.25;4.40;;;;;;;5.29;55.15;99549.31;5013778;28;20094;-68
2022/04/19 01:43:14;;;;;;;8.65;4.60;;;;;;;5.29;55.21;99549.31;4997105;28;20106;-67
2022/04/19 01:45:50;;;;;;;6.07;4.20;;;;;;;5.27;55.12;99550.31;4999032;28;20424;-68
2022/04/19 01:48:20;;;;;;;8.93;4.85;;;;;;;5.25;55.24;99549.53;4997532;28;20045;-70
2022/04/19 01:50:45;;;;;;;12.35;4.72;;;;;;;5.22;54.91;99542.63;4998409;28;20111;-72
2022/04/19 01:53:12;;;;;;;7.65;5.00;;;;;;;5.25;55.25;99547.75;4997854;28;20063;-74
2022/04/19 01:55:37;;;;;;;7.72;4.68;;;;;;;5.39;55.00;99545.25;4985013;28;20525;-73
2022/04/19 01:58:09;;;;;;;6.90;4.38;;;;;;;5.16;55.34;99542.94;5005001;28;20045;-71
2022/04/19 02:00:38;;;;;;;7.72;4.50;;;;;;;5.03;55.83;99541.84;5003054;28;20041;-72
2022/04/19 02:03:05;;;;;;;7.25;4.50;;;;;;;4.99;55.68;99535.00;5014353;28;20041;-73
2022/04/19 02:05:30;;;;;;;7.63;3.88;;;;;;;4.93;55.79;99530.03;5004479;28;20048;-73
2022/04/19 02:07:59;;;;;;;8.25;3.92;;;;;;;4.91;55.67;99538.03;4988750;28;20041;-73
2022/04/19 02:10:26;;;;;;;6.57;4.68;;;;;;;4.89;56.25;99537.25;5000317;28;20036;-74
2022/04/19 02:12:53;;;;;;;5.80;4.18;;;;;;;4.86;56.47;99541.81;5011836;28;20052;-72
2022/04/19 02:15:46;;;;;;;6.57;4.57;;;;;;;4.92;56.19;99550.31;4943626;28;20042;-71
2022/04/19 02:18:16;;;;;;;7.43;3.85;;;;;;;4.85;56.13;99541.00;4927844;28;20441;-67
2022/04/19 02:20:43;;;;;;;6.90;4.47;;;;;;;4.86;56.63;99555.03;4909613;28;20480;-76
2022/04/19 02:23:09;;;;;;;5.05;3.85;;;;;;;4.89;56.13;99554.88;4926968;28;20038;-74
2022/04/19 02:25:33;;;;;;;4.53;3.58;;;;;;;4.84;56.34;99562.19;4927459;28;20104;-71
2022/04/19 02:28:06;;;;;;;5.82;3.85;;;;;;;4.85;56.64;99554.22;4927260;28;20138;-67
2022/04/19 02:30:33;;;;;;;6.20;4.15;;;;;;;4.89;56.62;99565.44;4910967;28;20164;-73
2022/04/19 02:33:05;;;;;;;6.47;4.10;;;;;;;4.95;56.20;99565.16;4925764;28;20145;-73
2022/04/19 02:35:34;;;;;;;9.90;4.53;;;;;;;4.95;56.97;99562.53;4911476;28;20045;-72
2022/04/19 02:38:00;;;;;;;5.80;3.60;;;;;;;4.93;56.58;99562.59;4936211;28;20088;-75
2022/04/19 02:40:32;;;;;;;6.82;3.80;;;;;;;4.96;56.90;99569.53;4925721;28;20101;-76
2022/04/19 02:42:59;;;;;;;6.47;4.05;;;;;;;5.11;56.29;99574.00;4947353;28;20129;-75
2022/04/19 02:45:25;;;;;;;8.00;4.00;;;;;;;5.13;56.52;99574.81;4945929;28;20050;-75
2022/04/19 02:48:04;;;;;;;8.30;4.20;;;;;;;5.12;56.78;99583.66;4946546;28;20061;-75
2022/04/19 02:50:39;;;;;;;6.30;3.83;;;;;;;5.14;56.46;99580.94;4945201;28;20048;-75
2022/04/19 02:53:04;;;;;;;7.15;3.30;;;;;;;5.14;56.28;99597.66;4987099;28;20151;-74
2022/04/19 02:55:33;;;;;;;7.50;3.90;;;;;;;5.30;56.34;99598.59;5024363;28;20053;-74
2022/04/19 02:57:58;;;;;;;6.63;4.28;;;;;;;5.33;56.35;99601.06;5019043;28;20045;-74
2022/04/19 03:00:24;;;;;;;5.90;3.97;;;;;;;5.18;56.77;99608.94;5019429;28;20484;-73
2022/04/19 03:02:49;;;;;;;8.85;4.20;;;;;;;5.18;56.91;99601.88;5001359;28;20107;-76
2022/04/19 03:05:15;;;;;;;7.20;3.70;;;;;;;5.11;56.93;99603.09;5001835;28;20125;-76
2022/04/19 03:07:39;;;;;;;6.30;3.90;;;;;;;5.10;56.89;99606.66;5020616;28;20127;-74
2022/04/19 03:10:06;;;;;;;7.85;3.95;;;;;;;5.19;56.77;99615.94;5013973;28;20053;-67
2022/04/19 03:12:31;;;;;;;10.00;4.65;;;;;;;5.20;57.26;99612.31;5006687;28;20044;-65
2022/04/19 03:15:06;;;;;;;4.30;3.30;;;;;;;5.55;56.16;99615.84;5011799;28;20142;-65
2022/04/19 03:17:31;;;;;;;6.70;3.33;;;;;;;5.54;56.40;99620.25;4989026;28;20139;-63
2022/04/19 03:19:56;;;;;;;8.32;3.42;;;;;;;5.63;56.16;99605.75;5011545;28;20163;-64
2022/04/19 03:22:20;;;;;;;9.52;4.22;;;;;;;5.51;56.34;99617.81;5014544;28;20047;-64
2022/04/19 03:27:43;;;;;;;3.47;2.33;;;;;;;5.57;55.74;99628.03;5019962;28;20051;-64
2022/04/19 03:30:15;;;;;;;6.63;4.10;;;;;;;5.58;56.36;99618.31;5002759;28;20044;-63
2022/04/19 03:32:43;;;;;;;6.90;3.88;;;;;;;5.46;56.36;99631.25;4999184;28;20041;-60
2022/04/19 03:35:08;;;;;;;6.55;3.72;;;;;;;5.38;56.47;99620.22;5020750;28;20041;-65
2022/04/19 03:37:33;;;;;;;6.63;3.63;;;;;;;5.35;56.83;99611.56;5008023;28;20087;-64
2022/04/19 03:39:58;;;;;;;8.93;4.07;;;;;;;5.40;56.78;99622.78;5018728;28;20041;-62
2022/04/19 03:42:24;;;;;;;10.23;4.60;;;;;;;5.42;56.52;99621.75;5017425;28;20086;-63
2022/04/19 03:44:48;;;;;;;6.93;3.97;;;;;;;5.46;56.28;99622.44;5000170;28;20411;-64
2022/04/19 03:47:15;;;;;;;4.20;2.78;;;;;;;5.58;56.05;99624.47;5015543;28;20474;-64
2022/04/19 03:49:41;;;;;;;5.97;3.78;;;;;;;5.60;56.34;99629.69;5011638;28;20051;-64
2022/04/19 03:52:07;;;;;;;6.10;3.50;;;;;;;5.65;56.03;99632.94;5016713;28;20103;-65
2022/04/19 03:54:34;;;;;;;6.50;4.15;;;;;;;5.53;56.66;99628.31;4998885;28;20049;-63
2022/04/19 03:57:01;;;;;;;6.22;3.22;;;;;;;5.39;56.99;99621.94;5015561;28;20114;-70
2022/04/19 03:59:25;;;;;;;8.05;4.10;;;;;;;5.40;57.16;99626.28;4998911;28;20068;-64
2022/04/19 04:01:50;;;;;;;7.85;4.10;;;;;;;5.51;57.11;99622.22;4999836;28;20067;-64
2022/04/19 04:04:15;;;;;;;7.05;4.45;;;;;;;5.58;56.72;99618.31;5015835;28;20056;-65
2022/04/19 04:06:39;;;;;;;6.32;3.80;;;;;;;5.66;56.77;99630.22;5015785;28;20049;-65
2022/04/19 04:09:05;;;;;;;14.35;5.00;;;;;;;5.71;56.62;99630.84;5016733;28;20041;-66
2022/04/19 04:11:30;;;;;;;5.53;3.58;;;;;;;5.72;57.05;99615.84;4982105;28;20047;-65
2022/04/19 04:14:08;;;;;;;5.40;3.47;;;;;;;5.75;57.05;99620.97;5015322;28;20049;-65
2022/04/19 04:16:33;;;;;;;7.05;3.80;;;;;;;5.84;57.08;99624.00;5015869;28;20043;-64
2022/04/19 04:18:58;;;;;;;7.28;3.85;;;;;;;6.00;56.45;99621.41;5018416;28;20127;-64
2022/04/19 04:21:23;;;;;;;8.52;3.72;;;;;;;6.12;56.57;99620.75;5018377;28;20064;-65
2022/04/19 04:23:48;;;;;;;4.50;3.33;;;;;;;6.23;55.86;99617.53;5015371;28;20487;-65
2022/04/19 04:26:16;;;;;;;14.05;5.53;;;;;;;6.22;55.98;99622.88;5017570;28;20515;-63
2022/04/19 04:28:40;;;;;;;14.00;4.57;;;;;;;6.23;56.07;99611.38;5035621;28;20522;-65
2022/04/19 04:31:06;;;;;;;5.50;3.88;;;;;;;6.26;56.02;99622.66;4966685;28;20041;-64
2022/04/19 04:33:32;;;;;;;11.35;4.57;;;;;;;6.23;56.70;99621.97;5002457;28;20487;-64
2022/04/19 04:35:58;;;;;;;11.25;5.15;;;;;;;6.23;56.36;99616.66;4986775;28;20153;-64
2022/04/19 04:38:23;;;;;;;7.53;3.72;;;;;;;6.26;56.33;99627.09;5017490;28;20392;-65
2022/04/19 04:40:48;;;;;;;7.25;3.65;;;;;;;6.33;56.31;99617.88;4981862;28;20064;-63
2022/04/19 04:43:13;;;;;;;8.60;4.05;;;;;;;6.40;56.05;99629.84;5003848;28;20067;-64
2022/04/19 04:45:38;;;;;;;12.68;4.10;;;;;;;6.44;56.12;99623.44;4997467;28;20041;-65
2022/04/19 04:50:47;;;;;;;4.18;2.83;;;;;;;6.61;55.82;99617.22;5016757;28;20041;-64
2022/04/19 04:53:12;;;;;;;5.60;3.83;;;;;;;6.69;55.72;99621.16;4996075;28;20045;-64
2022/04/19 04:55:42;;;;;;;6.97;4.22;;;;;;;6.74;55.68;99623.53;5011828;28;20111;-63
2022/04/19 04:58:15;;;;;;;8.25;3.42;;;;;;;6.70;55.64;99628.16;5011656;28;20053;-64
2022/04/19 05:00:40;;;;;;;9.07;4.20;;;;;;;6.71;55.82;99631.66;4994759;28;20037;-63
2022/04/19 05:03:06;;;;;;;12.05;4.30;;;;;;;6.71;55.57;99629.88;5022092;28;20060;-64
2022/04/19 05:05:30;;;;;;;8.20;4.00;;;;;;;6.72;55.57;99623.63;5027606;28;20504;-63
2022/04/19 05:08:02;;;;;;;11.48;4.55;;;;;;;6.71;55.62;99631.66;5024150;28;20389;-64
2022/04/19 05:10:28;;;;;;;9.80;3.78;;;;;;;6.71;55.55;99632.50;5009752;28;20083;-63
2022/04/19 05:12:53;;;;;;;5.68;3.90;;;;;;;6.71;55.36;99623.72;5001633;28;20076;-64
2022/04/19 05:15:22;;;;;;;11.07;3.70;;;;;;;6.73;55.44;99630.63;4985355;28;20048;-64
2022/04/19 05:17:48;;;;;;;8.43;3.65;;;;;;;6.78;55.38;99617.97;5013751;28;20057;-64
2022/04/19 05:20:14;;;;;;;5.32;3.33;;;;;;;6.90;55.20;99629.69;4997771;28;20248;-65
2022/04/19 05:22:40;;;;;;;13.38;3.90;;;;;;;6.90;55.19;99635.81;5008254;28;20052;-64
2022/04/19 05:25:05;;;;;;;4.78;3.20;;;;;;;6.91;55.35;99632.25;5013753;28;20114;-64
2022/04/19 05:27:29;;;;;;;8.05;4.30;;;;;;;6.98;55.48;99643.38;4997549;28;20044;-66
2022/04/19 05:29:54;;;;;;;8.43;3.30;;;;;;;7.01;55.02;99637.88;4997463;28;20440;-65
2022/04/19 05:32:20;;;;;;;4.28;3.20;;;;;;;7.05;55.41;99633.25;4997272;28;20068;-65
2022/04/19 05:34:47;;;;;;;5.72;3.05;;;;;;;7.07;55.46;99628.72;4980872;28;20041;-64
2022/04/19 05:37:12;;;;;;;8.48;3.38;;;;;;;7.09;55.62;99630.34;4997280;28;20140;-65
2022/04/19 05:39:37;;;;;;;7.30;3.22;;;;;;;7.16;55.19;99621.09;4981335;28;20037;-65
2022/04/19 05:42:02;;;;;;;5.10;3.53;;;;;;;7.25;55.05;99627.66;4997542;28;20044;-65
2022/04/19 05:44:27;;;;;;;3.80;3.15;;;;;;;7.37;55.52;99613.69;5014910;28;20045;-64
2022/04/19 05:46:51;;;;;;;5.38;3.35;;;;;;;7.52;55.24;99618.09;4997528;28;20108;-64
2022/04/19 05:49:16;;;;;;;9.00;3.33;;;;;;;7.64;54.26;99622.66;5016428;28;20047;-65
2022/04/19 05:51:45;;;;;;;8.18;3.28;;;;;;;7.77;54.42;99617.47;4982788;28;20080;-65
2022/04/19 05:54:10;;;;;;;7.18;2.63;;;;;;;7.95;54.26;99620.81;4980601;28;20047;-65
2022/04/19 05:56:35;;;;;;;12.55;3.60;;;;;;;8.18;54.04;99622.06;5015087;28;20041;-64
2022/04/19 05:59:00;;;;;;;5.53;3.53;;;;;;;8.40;53.10;99626.91;5014955;28;20041;-65
2022/04/19 06:01:25;;;;;;;5.15;2.67;;;;;;;8.60;52.54;99623.84;5000295;28;20041;-64
2022/04/19 06:06:34;;;;;;;5.45;2.95;;;;;;;8.97;51.53;99619.66;4998053;28;20131;-65
2022/04/19 06:08:59;;;;;;;4.22;2.58;;;;;;;9.04;51.67;99629.78;4997866;28;20167;-64
2022/04/19 06:11:24;;;;;;;5.43;3.75;;;;;;;8.98;52.04;99626.69;5014839;28;20132;-64
2022/04/19 06:13:49;;;;;;;7.00;2.97;;;;;;;9.04;51.92;99607.66;5018860;28;20160;-63
2022/04/19 06:16:16;;;;;;;6.80;3.13;;;;;;;9.12;51.88;99625.81;5000689;28;20457;-64
2022/04/19 06:18:46;;;;;;;7.10;2.55;;;;;;;9.20;51.23;99608.38;5000628;28;20044;-64
2022/04/19 06:21:14;;;;;;;7.00;3.67;;;;;;;9.16;51.57;99613.97;5000877;28;20049;-68
2022/04/19 06:23:39;;;;;;;5.53;3.15;;;;;;;9.17;51.12;99613.88;5018976;28;20045;-68
2022/04/19 06:26:05;;;;;;;8.63;3.78;;;;;;;9.25;51.38;99624.03;5001844;28;20415;-68
2022/04/19 06:28:32;;;;;;;7.22;3.05;;;;;;;9.48;50.28;99616.19;5001972;28;20040;-68
2022/04/19 06:31:17;;;;;;;14.35;4.07;;;;;;;9.79;50.54;99622.97;4923075;28;20100;-68
2022/04/19 06:33:48;;;;;;;5.47;3.20;;;;;;;10.35;49.17;99622.69;4939402;28;20391;-68
2022/04/19 06:36:14;;;;;;;4.90;3.15;;;;;;;10.73;47.84;99623.44;4938752;28;20054;-68
2022/04/19 06:38:39;;;;;;;11.57;2.70;;;;;;;10.90;47.24;99623.06;4938385;28;20054;-68
2022/04/19 06:41:03;;;;;;;5.80;2.95;;;;;;;10.99;47.18;99629.53;4938575;28;20054;-70
2022/04/19 06:43:31;;;;;;;7.00;3.35;;;;;;;10.99;47.26;99642.03;4906277;28;20055;-69
2022/04/19 06:46:10;;;;;;;4.53;3.00;;;;;;;10.90;46.99;99639.06;4938421;28;20060;-67
2022/04/19 06:48:37;;;;;;;8.23;3.17;;;;;;;10.80;47.28;99637.19;4922444;28;20065;-69
2022/04/19 06:51:01;;;;;;;8.57;3.38;;;;;;;10.68;47.72;99638.06;4938548;28;20151;-69
2022/04/19 06:53:30;;;;;;;7.10;3.30;;;;;;;10.61;47.33;99636.81;4938486;28;20051;-68
2022/04/19 06:56:15;;;;;;;6.10;3.42;;;;;;;10.67;47.41;99634.56;4938210;28;20062;-67
2022/04/19 06:58:40;;;;;;;6.53;2.65;;;;;;;10.86;47.31;99636.72;4905959;28;20159;-68
2022/04/19 07:01:07;;;;;;;4.07;2.38;;;;;;;10.90;46.87;99628.41;4937982;28;20047;-70
2022/04/19 07:03:32;;;;;;;4.05;3.00;;;;;;;10.63;47.25;99632.22;4921937;28;20046;-70
2022/04/19 07:06:15;;;;;;;8.93;3.72;;;;;;;10.47;47.77;99636.00;4937775;28;20053;-69
2022/04/19 07:08:40;;;;;;;12.35;3.35;;;;;;;10.37;48.19;99636.75;4983742;28;20044;-70
2022/04/19 07:11:07;;;;;;;3.83;3.20;;;;;;;10.34;48.31;99643.13;4997088;28;20459;-70
2022/04/19 07:13:56;;;;;;;7.53;3.22;;;;;;;10.36;48.57;99635.91;4997229;28;20041;-71
2022/04/19 07:16:39;;;;;;;5.15;3.47;;;;;;;10.17;48.75;99643.44;4998284;28;20045;-69
2022/04/19 07:19:04;;;;;;;17.10;4.00;;;;;;;9.94;49.13;99639.69;4981326;28;20056;-69
2022/04/19 07:26:56;;;;;;;10.90;3.40;;;;;;;10.30;49.23;99630.97;5000817;28;20076;-70
2022/04/19 07:29:22;;;;;;;7.57;3.55;;;;;;;10.68;48.25;99630.06;4997498;28;20038;-71
2022/04/19 07:31:51;;;;;;;6.10;3.30;;;;;;;10.88;48.22;99626.81;4998119;28;20048;-70
2022/04/19 07:34:34;;;;;;;;;;;;;;;11.38;47.35;99616.88;4997579;28;20486;-70
2022/04/19 07:36:59;;;;;;;5.97;3.22;;;;;;;11.36;47.01;99630.34;5015933;28;19967;-70
2022/04/19 07:39:24;;;;;;;6.72;3.58;;;;;;;11.29;46.96;99629.94;4998934;28;20048;-69
2022/04/19 07:41:50;;;;;;;7.10;3.60;;;;;;;11.16;47.41;99630.97;4998061;28;20048;-71
2022/04/19 07:44:15;;;;;;;6.13;3.30;;;;;;;11.04;47.22;99630.06;4996687;28;20066;-70
2022/04/19 07:46:45;;;;;;;6.28;3.63;;;;;;;10.48;48.42;99636.84;4980206;28;20049;-69
2022/04/19 07:49:09;;;;;;;8.38;2.45;;;;;;;10.30;48.74;99643.44;4997794;28;20036;-71
2022/04/19 07:51:36;;;;;;;5.15;2.83;;;;;;;10.18;49.64;99634.50;4979468;28;20042;-72
2022/04/19 07:54:02;;;;;;;7.63;3.78;;;;;;;9.93;50.61;99639.81;4996602;28;20110;-70
2022/04/19 07:56:26;;;;;;;8.93;4.05;;;;;;;9.75;50.43;99649.91;4996714;28;20049;-69
2022/04/19 07:58:52;;;;;;;6.30;3.65;;;;;;;9.57;51.49;99644.03;4996923;28;20106;-70
2022/04/19 08:01:18;;;;;;;11.02;4.38;;;;;;;9.53;51.48;99657.63;4996697;28;20480;-71
2022/04/19 08:03:43;;;;;;;5.22;4.20;;;;;;;9.43;51.81;99655.59;5000777;28;20573;-70
2022/04/19 08:06:08;;;;;;;5.90;3.67;;;;;;;9.31;51.82;99631.59;4999790;28;20049;-70
2022/04/19 08:08:34;;;;;;;7.55;4.43;;;;;;;9.26;52.29;99637.22;5017792;28;20051;-70
2022/04/19 08:10:59;;;;;;;6.30;4.10;;;;;;;9.26;52.39;99634.56;4999940;28;20609;-69
2022/04/19 08:13:25;;;;;;;9.98;3.95;;;;;;;9.31;52.12;99632.47;4999820;28;20427;-68
2022/04/19 08:15:50;;;;;;;5.85;2.90;;;;;;;9.40;52.03;99636.31;5017139;28;20052;-69
2022/04/19 08:18:16;;;;;;;7.85;3.70;;;;;;;9.50;51.37;99634.72;4982974;28;20076;-69
2022/04/19 08:20:45;;;;;;;16.80;4.60;;;;;;;9.50;51.98;99648.03;4982515;28;20041;-69
2022/04/19 08:23:11;;;;;;;11.77;3.88;;;;;;;9.47;51.69;99637.63;4982364;28;20598;-69
2022/04/19 08:25:38;;;;;;;10.05;3.67;;;;;;;9.50;52.22;99642.72;4999421;28;20499;-69
2022/04/19 08:28:03;;;;;;;9.38;5.53;;;;;;;9.57;51.71;99636.03;4999112;28;20752;-69
2022/04/19 08:30:29;;;;;;;9.82;3.90;;;;;;;9.62;51.48;99635.72;4999210;28;20044;-69
2022/04/19 08:32:54;;;;;;;6.03;3.30;;;;;;;9.78;51.62;99631.06;4999233;28;20575;-70
2022/04/19 08:35:19;;;;;;;4.88;3.70;;;;;;;9.83;51.32;99635.09;4998542;28;20171;-69
2022/04/19 08:37:45;;;;;;;9.15;3.65;;;;;;;9.96;50.91;99631.59;5017253;28;20067;-70
2022/04/19 08:40:13;;;;;;;12.63;4.43;;;;;;;10.10;50.92;99639.50;4999237;28;20045;-69
2022/04/19 08:42:40;;;;;;;9.15;4.07;;;;;;;10.15;50.33;99638.22;4999339;28;20132;-70
2022/04/19 08:45:07;;;;;;;5.53;3.90;;;;;;;10.14;50.25;99643.66;5016982;28;20059;-70
2022/04/19 08:47:36;;;;;;;7.07;3.10;;;;;;;10.22;50.51;99641.34;5016702;28;20068;-70
2022/04/19 08:50:03;;;;;;;10.70;4.40;;;;;;;10.33;50.76;99646.75;4998617;28;20041;-70
2022/04/19 08:52:28;;;;;;;8.70;3.85;;;;;;;10.41;50.16;99641.75;5016346;28;20385;-69
2022/04/19 08:57:40;;;;;;;9.75;4.47;;;;;;;10.65;50.05;99627.63;5016284;28;20048;-71
2022/04/19 09:00:06;;;;;;;8.63;3.50;;;;;;;10.75;49.44;99626.00;5016698;28;20053;-70
2022/04/19 09:02:32;;;;;;;9.27;3.60;;;;;;;10.83;49.76;99632.50;5016685;28;20051;-70
2022/04/19 09:05:15;;;;;;;7.05;3.15;;;;;;;11.06;48.89;99629.97;5016169;28;20064;-70
2022/04/19 09:07:41;;;;;;;9.18;3.97;;;;;;;10.94;49.38;99629.03;4998530;28;20051;-71
2022/04/19 09:10:07;;;;;;;5.68;3.80;;;;;;;10.86;49.33;99626.06;4998366;28;20068;-69
2022/04/19 09:12:32;;;;;;;5.72;3.60;;;;;;;10.85;49.53;99625.22;5016585;28;20036;-69
2022/04/19 09:14:59;;;;;;;9.57;4.70;;;;;;;10.77;49.88;99638.25;5016067;28;20037;-68
2022/04/19 09:17:40;;;;;;;9.02;4.35;;;;;;;10.81;49.75;99629.09;4988018;28;20098;-68
2022/04/19 09:20:11;;;;;;;9.55;3.63;;;;;;;10.73;50.09;99635.91;5006095;28;20051;-69
2022/04/19 09:22:37;;;;;;;5.60;3.92;;;;;;;10.70;50.41;99630.81;5023529;28;20131;-68
2022/04/19 09:25:24;;;;;;;4.47;2.83;;;;;;;10.85;50.21;99630.53;5020147;28;20518;-68
2022/04/19 09:27:49;;;;;;;6.63;4.70;;;;;;;10.75;50.38;99647.31;5004236;28;20074;-68
2022/04/19 09:30:21;;;;;;;6.50;2.63;;;;;;;10.98;50.36;99643.00;5023354;28;20037;-68
2022/04/19 09:33:08;;;;;;;4.45;3.22;;;;;;;10.98;50.85;99643.00;5027914;28;20041;-68
2022/04/19 09:35:40;;;;;;;5.88;3.75;;;;;;;10.82;51.09;99635.28;5009825;28;20053;-69
2022/04/19 09:38:07;;;;;;;6.68;3.72;;;;;;;10.66;51.60;99632.00;5016885;28;20106;-67
2022/04/19 09:40:35;;;;;;;5.60;3.67;;;;;;;10.74;51.55;99642.94;4998450;28;20426;-68
2022/04/19 09:43:20;;;;;;;11.25;3.70;;;;;;;10.98;51.38;99638.50;5016561;28;20496;-70
2022/04/19 09:45:56;;;;;;;8.05;4.10;;;;;;;10.97;51.28;99644.81;5015316;28;20102;-69
2022/04/19 09:48:27;;;;;;;8.05;3.90;;;;;;;11.12;51.27;99638.34;5019618;28;20033;-70
2022/04/19 09:50:55;;;;;;;7.03;3.75;;;;;;;11.43;50.71;99646.75;4998740;28;20049;-70
2022/04/19 09:53:22;;;;;;;7.00;3.92;;;;;;;11.67;50.15;99633.38;5015213;28;20032;-69
2022/04/19 09:55:52;;;;;;;7.45;2.75;;;;;;;11.87;49.43;99659.44;4997404;28;20094;-70
2022/04/19 09:58:18;;;;;;;3.03;2.70;;;;;;;11.84;49.63;99644.50;5016001;28;20064;-70
2022/04/19 10:00:44;;;;;;;5.82;3.75;;;;;;;11.61;50.07;99645.38;5015294;28;20113;-69
2022/04/19 10:08:38;;;;;;;9.40;3.80;;;;;;;11.70;49.98;99646.50;4997291;28;20658;-69
2022/04/19 10:11:03;;;;;;;7.15;3.40;;;;;;;11.82;49.56;99648.25;5014825;28;20128;-70
2022/04/19 10:13:29;;;;;;;5.03;3.63;;;;;;;11.72;50.08;99647.22;4997416;28;20132;-70
2022/04/19 10:15:54;;;;;;;4.55;3.30;;;;;;;11.80;49.75;99635.03;4996818;28;20049;-69
2022/04/19 10:18:19;;;;;;;6.38;3.70;;;;;;;11.93;49.82;99643.81;5015578;28;20071;-70
2022/04/19 10:20:54;;;;;;;8.18;4.20;;;;;;;12.09;49.32;99647.94;5015277;28;20048;-69
2022/04/19 10:23:20;;;;;;;6.80;3.97;;;;;;;11.98;49.63;99635.41;5014892;28;20056;-70
2022/04/19 10:25:48;;;;;;;15.50;3.92;;;;;;;12.01;49.61;99645.88;4998516;28;20076;-72
2022/04/19 10:28:27;;;;;;;6.43;3.47;;;;;;;12.15;49.48;99637.63;4999623;28;20045;-70
2022/04/19 10:30:53;;;;;;;5.07;3.92;;;;;;;12.21;49.41;99638.97;4981857;28;20155;-71
2022/04/19 10:33:44;;;;;;;5.60;3.72;;;;;;;12.40;48.95;99655.28;4997437;28;20549;-69
2022/04/19 10:36:10;;;;;;;6.03;3.42;;;;;;;12.40;48.98;99641.06;5015324;28;20508;-68
2022/04/19 10:38:35;;;;;;;15.05;5.22;;;;;;;12.50;48.72;99636.69;5015363;28;20529;-69
2022/04/19 10:41:00;;;;;;;5.07;3.13;;;;;;;12.66;48.11;99634.47;5015031;28;20411;-69
2022/04/19 10:43:26;;;;;;;5.80;3.90;;;;;;;12.77;47.68;99637.13;5014874;28;20131;-69
2022/04/19 10:45:52;;;;;;;7.38;3.55;;;;;;;12.76;47.68;99635.44;4997527;28;20032;-69
2022/04/19 10:48:17;;;;;;;4.93;3.35;;;;;;;12.92;47.55;99629.69;5015442;28;20491;-71
2022/04/19 10:50:44;;;;;;;4.97;3.90;;;;;;;13.04;47.10;99634.06;5013442;28;20466;-75
2022/04/19 10:53:10;;;;;;;9.45;3.78;;;;;;;13.46;46.54;99632.38;4981920;28;20396;-68
2022/04/19 10:55:35;;;;;;;10.70;4.78;;;;;;;13.91;45.83;99624.09;5013427;28;20052;-71
2022/04/19 10:58:06;;;;;;;5.38;3.80;;;;;;;14.24;44.66;99631.91;5019050;28;20051;-70
2022/04/19 11:00:41;;;;;;;8.82;3.60;;;;;;;14.22;44.27;99623.16;5019695;28;20064;-71
2022/04/19 11:03:11;;;;;;;6.15;3.22;;;;;;;14.06;44.44;99620.97;5018079;28;20053;-73
2022/04/19 11:05:46;;;;;;;5.95;3.20;;;;;;;13.73;44.41;99619.34;5018160;28;20056;-71
2022/04/19 11:08:26;;;;;;;5.00;3.30;;;;;;;13.56;45.53;99611.00;5018331;28;20041;-72
2022/04/19 11:11:21;;;;;;;5.95;3.22;;;;;;;13.41;45.04;99605.97;5018246;28;20418;-71
2022/04/19 11:14:16;;;;;;;6.60;3.30;;;;;;;13.28;45.47;99610.66;5010852;28;20139;-73
2022/04/19 11:16:41;;;;;;;10.85;3.15;;;;;;;13.27;45.52;99608.94;5015691;28;20041;-72
2022/04/19 11:19:15;;;;;;;5.35;3.38;;;;;;;13.43;45.52;99620.06;5018085;28;20037;-70
2022/04/19 11:22:01;;;;;;;3.65;3.22;;;;;;;13.62;45.10;99618.53;5017518;28;20040;-71
2022/04/19 11:25:04;;;;;;;5.22;3.58;;;;;;;13.58;45.21;99607.22;5019601;28;20442;-70
2022/04/19 11:27:52;;;;;;;5.85;3.70;;;;;;;13.60;45.07;99601.75;5006147;28;20537;-69
2022/04/19 11:30:17;;;;;;;3.25;2.63;;;;;;;13.48;45.11;99592.91;4961566;28;20569;-71
2022/04/19 11:32:43;;;;;;;5.63;3.63;;;;;;;13.26;45.42;99588.50;4960545;28;20116;-69
2022/04/19 11:35:16;;;;;;;6.72;3.30;;;;;;;13.08;45.27;99587.34;4960358;28;20054;-70
2022/04/19 11:37:42;;;;;;;6.45;3.17;;;;;;;12.84;46.03;99589.34;4971046;28;20389;-70
2022/04/19 11:48:26;;;;;;;6.28;3.25;;;;;;;12.60;46.33;99590.38;4953868;28;20789;-70
2022/04/19 11:50:52;;;;;;;4.05;2.58;;;;;;;12.63;46.69;99592.81;4958216;28;20129;-69
2022/04/19 11:53:19;;;;;;;3.03;2.22;;;;;;;12.74;45.77;99589.25;4953778;28;20050;-69
2022/04/19 11:55:53;;;;;;;6.75;2.80;;;;;;;12.91;45.26;99587.84;4955581;28;20052;-71
2022/04/19 11:58:21;;;;;;;5.03;3.10;;;;;;;13.02;45.41;99583.31;4956629;28;20034;-69
2022/04/19 12:01:03;;;;;;;5.05;2.50;;;;;;;13.20;44.90;99581.00;4956629;28;20473;-69
2022/04/19 12:03:30;;;;;;;5.00;2.35;;;;;;;13.36;44.77;99586.75;4956376;28;20046;-69
2022/04/19 12:06:03;;;;;;;6.32;3.08;;;;;;;13.58;44.01;99590.31;4938848;28;20095;-71
2022/04/19 12:08:33;;;;;;;3.08;2.72;;;;;;;13.79;44.06;99583.13;5007564;28;20049;-69
2022/04/19 12:10:59;;;;;;;5.85;2.90;;;;;;;13.95;43.13;99585.34;5017061;28;20449;-69
2022/04/19 12:13:24;;;;;;;4.13;2.38;;;;;;;13.99;43.21;99584.94;5016689;28;20525;-70
2022/04/19 12:15:48;;;;;;;3.72;2.72;;;;;;;14.08;43.14;99594.88;5017915;28;20515;-71